createdAt,value
2023-03-30T00:02:19.123Z,3.47
2023-03-30T00:04:49.168Z,3.35
2023-03-30T00:07:17.767Z,3.03
2023-03-30T00:09:46.670Z,3.70
2023-03-30T00:12:20.702Z,3.60
2023-03-30T00:14:49.450Z,4.85
2023-03-30T00:17:17.667Z,3.50
2023-03-30T00:19:46.133Z,3.67
2023-03-30T00:22:15.929Z,3.20
2023-03-30T00:24:44.076Z,3.50
2023-03-30T00:27:12.481Z,3.95
2023-03-30T00:29:40.571Z,3.13
2023-03-30T00:32:09.372Z,4.47
2023-03-30T00:34:37.471Z,3.20
2023-03-30T00:37:05.546Z,2.88
2023-03-30T00:39:35.056Z,3.45
2023-03-30T00:42:03.315Z,4.30
2023-03-30T00:45:14.160Z,3.60
2023-03-30T00:47:46.713Z,3.78
2023-03-30T00:50:17.829Z,4.47
2023-03-30T00:52:47.475Z,3.33
2023-03-30T00:55:17.105Z,4.38
2023-03-30T00:57:45.730Z,4.65
2023-03-30T01:00:15.052Z,3.53
2023-03-30T01:02:47.139Z,2.70
2023-03-30T01:05:15.557Z,3.63
2023-03-30T01:07:46.394Z,3.88
2023-03-30T01:10:16.076Z,3.75
2023-03-30T01:12:45.048Z,3.00
2023-03-30T01:15:13.579Z,3.58
2023-03-30T01:17:55.272Z,2.90
2023-03-30T01:20:46.990Z,4.60
2023-03-30T01:23:39.654Z,3.60
2023-03-30T01:26:47.614Z,3.35
2023-03-30T01:29:36.998Z,3.50
2023-03-30T01:32:36.673Z,3.70
2023-03-30T01:35:38.237Z,3.50
2023-03-30T01:38:43.105Z,4.05
2023-03-30T01:41:16.214Z,3.30
2023-03-30T01:43:51.328Z,4.68
2023-03-30T01:46:26.774Z,3.60
2023-03-30T01:49:04.541Z,3.40
2023-03-30T01:51:36.870Z,3.95
2023-03-30T01:54:10.913Z,3.50
2023-03-30T01:56:45.170Z,3.60
2023-03-30T01:59:19.141Z,4.50
2023-03-30T02:01:53.963Z,4.20
2023-03-30T02:04:25.027Z,3.40
2023-03-30T02:06:57.069Z,4.03
2023-03-30T02:09:27.555Z,2.85
2023-03-30T02:11:58.078Z,3.70
2023-03-30T02:14:31.339Z,4.05
2023-03-30T02:17:03.457Z,3.67
2023-03-30T02:19:31.870Z,4.18
2023-03-30T02:22:00.385Z,4.05
2023-03-30T02:24:31.643Z,3.47
2023-03-30T02:27:02.791Z,4.60
2023-03-30T02:29:33.051Z,3.50
2023-03-30T02:32:02.265Z,4.10
2023-03-30T02:34:47.008Z,3.72
2023-03-30T02:37:43.034Z,3.17
2023-03-30T02:40:26.652Z,4.13
2023-03-30T02:43:27.765Z,4.50
2023-03-30T02:46:11.922Z,4.70
2023-03-30T02:48:46.519Z,5.63
2023-03-30T02:51:31.966Z,4.50
2023-03-30T02:54:35.337Z,5.00
2023-03-30T02:57:34.567Z,3.63
2023-03-30T03:00:44.582Z,4.60
2023-03-30T03:03:24.187Z,3.75
2023-03-30T03:05:55.289Z,4.70
2023-03-30T03:08:34.734Z,4.03
2023-03-30T03:11:04.011Z,4.90
2023-03-30T03:13:32.844Z,4.82
2023-03-30T03:16:04.306Z,5.78
2023-03-30T03:18:35.079Z,4.53
2023-03-30T03:21:03.358Z,4.72
2023-03-30T03:23:31.950Z,5.20
2023-03-30T03:26:01.216Z,5.07
2023-03-30T03:28:31.792Z,3.75
2023-03-30T03:31:08.152Z,4.78
2023-03-30T03:33:36.716Z,4.20
2023-03-30T03:36:14.259Z,4.47
2023-03-30T03:38:52.486Z,5.25
2023-03-30T03:41:20.977Z,3.85
2023-03-30T03:43:49.262Z,3.40
2023-03-30T03:46:21.194Z,4.45
2023-03-30T03:48:49.426Z,3.60
2023-03-30T03:51:17.780Z,5.38
2023-03-30T03:53:49.575Z,4.32
2023-03-30T03:56:17.866Z,5.20
2023-03-30T03:58:45.966Z,4.15
2023-03-30T04:01:14.655Z,4.50
2023-03-30T04:03:44.232Z,4.03
2023-03-30T04:06:12.738Z,4.25
2023-03-30T04:08:40.714Z,3.17
2023-03-30T04:11:34.703Z,4.35
2023-03-30T04:14:31.848Z,4.78
2023-03-30T04:17:18.490Z,5.28
2023-03-30T04:20:11.704Z,5.30
2023-03-30T04:22:50.628Z,4.32
2023-03-30T04:25:25.735Z,5.30
2023-03-30T04:28:06.614Z,5.97
2023-03-30T04:31:12.877Z,4.15
2023-03-30T04:34:02.774Z,4.88
2023-03-30T04:37:11.570Z,4.50
2023-03-30T04:40:10.598Z,4.40
2023-03-30T04:42:53.376Z,4.85
2023-03-30T04:45:41.530Z,5.63
2023-03-30T04:48:38.559Z,4.18
2023-03-30T04:51:06.932Z,4.35
2023-03-30T04:54:02.527Z,4.68
2023-03-30T04:56:48.493Z,4.30
2023-03-30T04:59:37.084Z,5.63
2023-03-30T05:02:31.799Z,6.57
2023-03-30T05:05:23.394Z,4.10
2023-03-30T05:08:20.561Z,5.10
2023-03-30T05:11:08.440Z,4.82
2023-03-30T05:13:45.106Z,4.47
2023-03-30T05:16:37.215Z,4.75
2023-03-30T05:19:31.572Z,5.35
2023-03-30T05:22:18.120Z,4.05
2023-03-30T05:25:00.994Z,5.47
2023-03-30T05:28:02.321Z,4.35
2023-03-30T05:30:54.865Z,4.97
2023-03-30T05:33:43.751Z,4.78
2023-03-30T05:36:37.975Z,4.43
2023-03-30T05:39:30.586Z,4.35
2023-03-30T05:42:17.406Z,5.18
2023-03-30T05:45:06.314Z,5.07
2023-03-30T05:48:03.955Z,4.57
2023-03-30T05:50:34.894Z,3.85
2023-03-30T05:53:10.328Z,5.28
2023-03-30T05:55:46.854Z,5.22
2023-03-30T05:58:34.036Z,4.38
2023-03-30T06:01:15.768Z,4.72
2023-03-30T06:03:46.544Z,3.88
2023-03-30T06:06:15.609Z,4.80
2023-03-30T06:08:47.410Z,4.85
2023-03-30T06:11:19.438Z,5.82
2023-03-30T06:16:39.757Z,5.65
2023-03-30T06:19:08.700Z,4.07
2023-03-30T06:21:36.998Z,4.18
2023-03-30T06:24:25.442Z,5.18
2023-03-30T06:26:55.188Z,6.47
2023-03-30T06:29:23.487Z,4.25
2023-03-30T06:31:53.409Z,5.05
2023-03-30T06:34:54.238Z,5.03
2023-03-30T06:37:25.572Z,5.65
2023-03-30T06:39:53.790Z,4.07
2023-03-30T06:42:22.374Z,5.85
2023-03-30T06:45:12.121Z,4.68
2023-03-30T06:47:42.230Z,4.95
2023-03-30T06:50:11.942Z,6.20
2023-03-30T06:52:40.089Z,5.60
2023-03-30T06:55:09.414Z,4.53
2023-03-30T06:57:37.794Z,5.75
2023-03-30T07:00:09.963Z,5.38
2023-03-30T07:02:59.936Z,4.60
2023-03-30T07:05:45.062Z,6.28
2023-03-30T07:08:21.853Z,5.65
2023-03-30T07:10:54.297Z,5.38
2023-03-30T07:13:25.270Z,5.68
2023-03-30T07:15:54.012Z,5.10
2023-03-30T07:18:23.485Z,5.53
2023-03-30T07:20:51.927Z,5.05
2023-03-30T07:23:21.808Z,4.43
2023-03-30T07:25:53.290Z,4.97
2023-03-30T07:28:26.353Z,5.03
2023-03-30T07:30:55.427Z,4.88
2023-03-30T07:33:29.957Z,5.70
2023-03-30T07:35:59.060Z,6.60
2023-03-30T07:38:28.248Z,6.47
2023-03-30T07:40:56.945Z,5.28
2023-03-30T07:43:27.427Z,5.78
2023-03-30T07:45:57.657Z,5.38
2023-03-30T07:48:38.408Z,5.00
2023-03-30T07:51:09.404Z,4.93
2023-03-30T07:53:43.256Z,6.05
2023-03-30T07:56:19.770Z,4.13
2023-03-30T07:58:49.479Z,4.85
2023-03-30T08:01:21.046Z,3.67
2023-03-30T08:04:17.389Z,4.10
2023-03-30T08:06:47.242Z,4.45
2023-03-30T08:09:16.858Z,3.13
2023-03-30T08:11:45.764Z,3.53
2023-03-30T08:14:14.021Z,3.15
2023-03-30T08:16:42.140Z,3.72
2023-03-30T08:19:10.230Z,3.90
2023-03-30T08:21:39.820Z,3.53
2023-03-30T08:24:09.860Z,4.20
2023-03-30T08:26:38.557Z,3.60
2023-03-30T08:29:07.100Z,3.53
2023-03-30T08:31:35.265Z,3.13
2023-03-30T08:34:04.435Z,3.25
2023-03-30T08:36:33.130Z,3.10
2023-03-30T08:39:02.872Z,3.25
2023-03-30T08:41:57.503Z,2.83
2023-03-30T08:44:32.997Z,2.95
2023-03-30T08:47:03.284Z,1.95
2023-03-30T08:49:36.574Z,1.73
2023-03-30T08:52:06.554Z,2.50
2023-03-30T08:54:36.385Z,2.00
2023-03-30T08:57:13.210Z,2.22
2023-03-30T08:59:47.818Z,2.08
2023-03-30T09:02:20.460Z,2.25
2023-03-30T09:04:58.175Z,2.30
2023-03-30T09:07:29.928Z,2.35
2023-03-30T09:10:00.913Z,2.85
2023-03-30T09:12:38.349Z,2.35
2023-03-30T09:15:12.865Z,2.10
2023-03-30T09:17:44.072Z,2.47
2023-03-30T09:20:17.049Z,2.50
2023-03-30T09:22:46.821Z,2.38
2023-03-30T09:25:21.776Z,2.60
2023-03-30T09:28:01.943Z,2.40
2023-03-30T09:30:36.004Z,2.45
2023-03-30T09:33:12.283Z,2.22
2023-03-30T09:35:42.881Z,2.40
2023-03-30T09:38:14.727Z,2.33
2023-03-30T09:41:01.011Z,2.05
2023-03-30T09:43:35.569Z,2.00
2023-03-30T09:46:07.936Z,2.55
2023-03-30T09:48:41.157Z,2.40
2023-03-30T09:51:17.706Z,3.58
2023-03-30T09:53:47.620Z,3.03
2023-03-30T09:56:23.142Z,2.72
2023-03-30T09:58:51.277Z,2.63
2023-03-30T10:01:21.245Z,3.00
2023-03-30T10:04:08.619Z,3.45
2023-03-30T10:06:40.097Z,2.58
2023-03-30T10:09:13.226Z,3.38
2023-03-30T10:11:45.441Z,2.80
2023-03-30T10:14:29.791Z,3.20
2023-03-30T10:16:59.404Z,3.08
2023-03-30T10:19:28.329Z,3.00
2023-03-30T10:21:59.438Z,2.80
2023-03-30T10:24:31.609Z,3.13
2023-03-30T10:27:11.280Z,2.50
2023-03-30T10:29:39.699Z,2.90
2023-03-30T10:32:13.242Z,3.10
2023-03-30T10:34:43.582Z,3.33
2023-03-30T10:37:14.938Z,3.05
2023-03-30T10:39:45.418Z,3.60
2023-03-30T10:42:18.815Z,3.03
2023-03-30T10:44:51.649Z,2.92
2023-03-30T10:47:45.482Z,3.83
2023-03-30T10:50:23.229Z,3.55
2023-03-30T10:53:06.518Z,3.65
2023-03-30T10:55:43.080Z,3.45
2023-03-30T10:58:27.498Z,3.72
2023-03-30T11:01:07.819Z,3.92
2023-03-30T11:03:39.454Z,3.10
2023-03-30T11:06:14.218Z,3.22
2023-03-30T11:08:45.526Z,2.92
2023-03-30T11:11:20.902Z,2.70
2023-03-30T11:13:55.042Z,2.83
2023-03-30T11:16:26.803Z,3.00
2023-03-30T11:18:58.317Z,2.53
2023-03-30T11:21:35.634Z,4.32
2023-03-30T11:24:08.141Z,4.22
2023-03-30T11:26:40.828Z,3.10
2023-03-30T11:29:25.647Z,2.63
2023-03-30T11:32:06.214Z,2.97
2023-03-30T11:34:46.620Z,2.88
2023-03-30T11:37:21.108Z,3.25
2023-03-30T11:39:56.540Z,2.92
2023-03-30T11:42:28.274Z,3.53
2023-03-30T11:44:58.250Z,3.30
2023-03-30T11:47:48.528Z,3.05
2023-03-30T11:50:29.839Z,3.05
2023-03-30T11:53:11.338Z,3.20
2023-03-30T11:55:52.138Z,3.63
2023-03-30T11:58:30.659Z,3.33
2023-03-30T12:01:19.428Z,3.55
2023-03-30T12:03:50.382Z,3.40
2023-03-30T12:06:29.803Z,3.40
2023-03-30T12:09:07.448Z,3.50
2023-03-30T12:11:42.754Z,3.88
2023-03-30T12:14:35.881Z,3.67
2023-03-30T12:17:12.918Z,4.07
2023-03-30T12:19:56.099Z,3.50
2023-03-30T12:22:37.228Z,3.60
2023-03-30T12:25:16.822Z,3.10
2023-03-30T12:27:59.778Z,3.30
2023-03-30T12:30:29.748Z,3.13
2023-03-30T12:33:01.988Z,3.28
2023-03-30T12:36:01.658Z,2.80
2023-03-30T12:38:39.279Z,4.22
2023-03-30T12:41:15.342Z,3.30
2023-03-30T12:43:56.557Z,3.45
2023-03-30T12:46:32.472Z,3.20
2023-03-30T12:49:12.978Z,2.85
2023-03-30T12:51:58.404Z,2.80
2023-03-30T12:55:02.103Z,2.90
2023-03-30T12:57:41.039Z,2.65
2023-03-30T13:00:29.725Z,2.95
2023-03-30T13:03:27.985Z,3.42
2023-03-30T13:06:00.590Z,3.78
2023-03-30T13:08:33.531Z,3.08
2023-03-30T13:11:15.543Z,3.28
2023-03-30T13:13:51.616Z,4.43
2023-03-30T13:16:48.288Z,2.90
2023-03-30T13:19:26.445Z,3.10
2023-03-30T13:22:05.571Z,3.03
2023-03-30T13:24:41.143Z,2.40
2023-03-30T13:27:25.273Z,2.60
2023-03-30T13:29:56.601Z,2.50
2023-03-30T13:32:37.170Z,2.15
2023-03-30T13:35:23.685Z,2.40
2023-03-30T13:38:18.578Z,2.85
2023-03-30T13:41:03.885Z,3.25
2023-03-30T13:43:47.493Z,2.42
2023-03-30T13:46:28.290Z,2.65
2023-03-30T13:49:08.726Z,3.25
2023-03-30T13:51:39.104Z,3.00
2023-03-30T13:54:15.602Z,2.80
2023-03-30T13:56:48.811Z,2.85
2023-03-30T13:59:21.018Z,2.45
2023-03-30T14:01:53.662Z,3.13
2023-03-30T14:04:22.135Z,2.97
2023-03-30T14:06:54.286Z,2.60
2023-03-30T14:09:25.352Z,2.58
2023-03-30T14:11:56.460Z,2.30
2023-03-30T14:14:34.298Z,2.30
2023-03-30T14:17:04.008Z,3.05
2023-03-30T14:19:36.439Z,2.70
2023-03-30T14:22:11.933Z,2.65
2023-03-30T14:24:58.136Z,2.13
2023-03-30T14:27:26.489Z,2.67
2023-03-30T14:29:55.165Z,2.92
2023-03-30T14:32:25.123Z,2.38
2023-03-30T14:34:55.272Z,2.70
2023-03-30T14:37:26.807Z,2.03
2023-03-30T14:39:58.449Z,1.80
2023-03-30T14:42:28.894Z,2.00
2023-03-30T14:44:58.954Z,1.92
2023-03-30T14:47:28.779Z,1.35
2023-03-30T14:50:00.152Z,1.20
2023-03-30T14:52:31.872Z,1.67
2023-03-30T14:55:09.136Z,1.50
2023-03-30T14:57:43.110Z,1.95
2023-03-30T15:00:20.533Z,2.28
2023-03-30T15:02:51.832Z,1.70
2023-03-30T15:05:22.101Z,2.40
2023-03-30T15:07:51.790Z,1.98
2023-03-30T15:10:27.686Z,1.80
2023-03-30T15:12:58.952Z,2.00
2023-03-30T15:15:31.105Z,2.25
2023-03-30T15:18:00.753Z,1.95
2023-03-30T15:20:31.759Z,2.67
2023-03-30T15:23:01.840Z,2.20
2023-03-30T15:25:35.274Z,1.80
2023-03-30T15:28:06.933Z,1.85
2023-03-30T15:30:39.251Z,2.00
2023-03-30T15:33:08.523Z,2.10
2023-03-30T15:35:38.711Z,1.73
2023-03-30T15:38:18.933Z,1.60
2023-03-30T15:40:51.085Z,1.50
2023-03-30T15:43:20.964Z,1.80
2023-03-30T15:45:52.215Z,1.60
2023-03-30T15:48:23.576Z,1.42
2023-03-30T15:50:55.268Z,1.88
2023-03-30T15:53:35.054Z,1.92
2023-03-30T15:56:06.506Z,2.03
2023-03-30T15:58:36.064Z,1.83
2023-03-30T16:01:06.140Z,1.67
2023-03-30T16:03:39.407Z,1.50
2023-03-30T16:06:10.847Z,1.55
2023-03-30T16:08:42.857Z,2.10
2023-03-30T16:11:15.255Z,1.95
2023-03-30T16:13:45.028Z,1.70
2023-03-30T16:16:13.993Z,1.45
2023-03-30T16:18:43.073Z,1.60
2023-03-30T16:21:12.587Z,1.48
2023-03-30T16:23:41.028Z,1.33
2023-03-30T16:26:09.783Z,1.40
2023-03-30T16:28:42.537Z,1.75
2023-03-30T16:31:16.150Z,1.20
2023-03-30T16:33:44.578Z,1.45
2023-03-30T16:36:15.154Z,1.52
2023-03-30T16:38:43.439Z,1.15
2023-03-30T16:41:13.795Z,1.17
2023-03-30T16:43:45.169Z,1.20
2023-03-30T16:46:15.030Z,1.42
2023-03-30T16:48:44.211Z,1.60
2023-03-30T16:51:14.845Z,1.77
2023-03-30T16:53:43.551Z,1.15
2023-03-30T16:56:17.549Z,1.90
2023-03-30T16:58:48.013Z,2.13
2023-03-30T17:01:18.947Z,1.50
2023-03-30T17:03:47.956Z,1.88
2023-03-30T17:06:17.025Z,1.80
2023-03-30T17:08:45.921Z,1.80
2023-03-30T17:11:14.292Z,1.70
2023-03-30T17:13:43.854Z,1.52
2023-03-30T17:16:15.965Z,1.55
2023-03-30T17:18:44.065Z,1.60
2023-03-30T17:21:16.671Z,1.55
2023-03-30T17:23:46.455Z,1.95
2023-03-30T17:26:14.921Z,1.65
2023-03-30T17:28:43.943Z,1.70
2023-03-30T17:31:16.711Z,2.13
2023-03-30T17:33:45.438Z,2.22
2023-03-30T17:36:17.841Z,2.10
2023-03-30T17:38:46.270Z,2.00
2023-03-30T17:41:17.577Z,1.33
2023-03-30T17:43:48.281Z,1.55
2023-03-30T17:46:20.791Z,1.60
2023-03-30T17:48:51.290Z,1.88
2023-03-30T17:51:19.479Z,1.20
2023-03-30T17:53:47.597Z,1.90
2023-03-30T17:56:15.923Z,1.95
2023-03-30T17:58:44.736Z,1.45
2023-03-30T18:01:13.985Z,1.98
2023-03-30T18:03:44.986Z,2.15
2023-03-30T18:06:14.086Z,1.85
2023-03-30T18:08:43.243Z,2.00
2023-03-30T18:11:11.959Z,2.08
2023-03-30T18:13:41.979Z,1.95
2023-03-30T18:16:14.202Z,2.20
2023-03-30T18:18:47.326Z,1.80
2023-03-30T18:23:48.866Z,2.38
2023-03-30T18:26:16.992Z,1.85
2023-03-30T18:28:46.489Z,2.75
2023-03-30T18:31:14.601Z,2.00
2023-03-30T18:33:42.937Z,2.40
2023-03-30T18:36:13.486Z,2.17
2023-03-30T18:38:42.041Z,1.90
2023-03-30T18:41:11.947Z,2.28
2023-03-30T18:43:40.023Z,1.77
2023-03-30T18:46:10.084Z,2.20
2023-03-30T18:48:38.218Z,2.15
2023-03-30T18:51:06.164Z,1.83
2023-03-30T18:53:36.749Z,1.90
2023-03-30T18:56:05.016Z,2.40
2023-03-30T18:58:41.577Z,2.03
2023-03-30T19:01:09.880Z,1.70
2023-03-30T19:03:38.190Z,1.80
2023-03-30T19:06:10.159Z,2.15
2023-03-30T19:08:39.579Z,3.70
2023-03-30T19:11:07.797Z,2.33
2023-03-30T19:13:35.960Z,1.92
2023-03-30T19:16:06.212Z,1.92
2023-03-30T19:18:34.528Z,2.83
2023-03-30T19:21:03.050Z,2.08
2023-03-30T19:23:31.270Z,1.50
2023-03-30T19:26:00.820Z,2.00
2023-03-30T19:28:28.787Z,1.55
2023-03-30T19:30:56.974Z,2.28
2023-03-30T19:33:25.308Z,2.05
2023-03-30T19:35:53.603Z,1.75
2023-03-30T19:38:21.606Z,2.00
2023-03-30T19:40:49.842Z,2.50
2023-03-30T19:43:19.353Z,2.00
2023-03-30T19:45:51.296Z,2.25
2023-03-30T19:48:19.386Z,2.10
2023-03-30T19:50:49.095Z,2.10
2023-03-30T19:53:17.454Z,1.85
2023-03-30T19:55:46.070Z,2.40
2023-03-30T19:58:14.683Z,3.10
2023-03-30T20:00:47.135Z,2.55
2023-03-30T20:03:15.729Z,3.70
2023-03-30T20:05:50.416Z,2.20
2023-03-30T20:08:24.760Z,3.20
2023-03-30T20:10:53.820Z,3.10
2023-03-30T20:13:24.121Z,3.13
2023-03-30T20:15:56.933Z,2.10
2023-03-30T20:18:25.232Z,2.70
2023-03-30T20:20:53.697Z,2.33
2023-03-30T20:23:21.770Z,2.33
2023-03-30T20:25:56.705Z,2.30
2023-03-30T20:28:25.051Z,2.50
2023-03-30T20:30:57.376Z,2.72
2023-03-30T20:33:25.933Z,2.05
2023-03-30T20:35:54.746Z,2.13
2023-03-30T20:38:22.829Z,2.00
2023-03-30T20:40:56.096Z,2.05
2023-03-30T20:43:26.765Z,2.83
2023-03-30T20:46:02.604Z,2.42
2023-03-30T20:48:37.473Z,2.50
2023-03-30T20:51:07.432Z,2.20
2023-03-30T20:53:36.358Z,2.30
2023-03-30T20:56:06.174Z,2.50
2023-03-30T20:58:34.340Z,2.40
2023-03-30T21:01:12.287Z,2.00
2023-03-30T21:03:44.073Z,2.55
2023-03-30T21:06:16.175Z,3.22
2023-03-30T21:08:44.310Z,2.22
2023-03-30T21:11:12.430Z,2.50
2023-03-30T21:13:40.433Z,2.60
2023-03-30T21:16:09.371Z,2.35
2023-03-30T21:18:37.620Z,2.45
2023-03-30T21:21:07.189Z,2.70
2023-03-30T21:23:37.256Z,2.60
2023-03-30T21:26:07.497Z,2.78
2023-03-30T21:28:36.540Z,2.22
2023-03-30T21:31:08.603Z,2.47
2023-03-30T21:33:37.710Z,3.13
2023-03-30T21:36:08.652Z,2.85
2023-03-30T21:38:37.268Z,2.95
2023-03-30T21:41:07.676Z,2.45
2023-03-30T21:43:38.880Z,2.70
2023-03-30T21:46:09.578Z,2.60
2023-03-30T21:48:40.293Z,3.30
2023-03-30T21:51:13.666Z,3.75
2023-03-30T21:53:42.745Z,2.88
2023-03-30T21:56:12.360Z,2.50
2023-03-30T21:58:41.157Z,2.97
2023-03-30T22:01:12.635Z,2.50
2023-03-30T22:03:42.173Z,2.50
2023-03-30T22:06:14.122Z,2.05
2023-03-30T22:08:42.589Z,2.22
2023-03-30T22:11:13.416Z,2.22
2023-03-30T22:13:41.414Z,2.60
2023-03-30T22:16:13.812Z,2.60
2023-03-30T22:18:42.643Z,2.05
2023-03-30T22:21:14.548Z,2.33
2023-03-30T22:23:42.827Z,2.22
2023-03-30T22:26:12.024Z,3.58
2023-03-30T22:28:40.433Z,2.10
2023-03-30T22:31:08.892Z,2.00
2023-03-30T22:33:37.189Z,2.15
2023-03-30T22:36:07.705Z,2.15
2023-03-30T22:38:37.464Z,2.17
2023-03-30T22:41:07.908Z,2.25
2023-03-30T22:43:36.165Z,2.35
2023-03-30T22:46:05.103Z,2.15
2023-03-30T22:48:33.887Z,2.45
2023-03-30T22:51:03.223Z,2.20
2023-03-30T22:53:31.888Z,2.08
2023-03-30T22:56:01.553Z,2.15
2023-03-30T22:58:29.765Z,2.70
2023-03-30T23:01:01.140Z,2.60
2023-03-30T23:03:29.328Z,2.25
2023-03-30T23:06:00.771Z,2.33
2023-03-30T23:08:29.510Z,1.90
2023-03-30T23:10:57.692Z,1.80
2023-03-30T23:13:27.934Z,2.40
2023-03-30T23:15:56.206Z,2.40
2023-03-30T23:18:24.428Z,2.42
2023-03-30T23:20:53.990Z,1.98
2023-03-30T23:23:22.360Z,2.30
2023-03-30T23:25:51.329Z,1.80
2023-03-30T23:28:22.067Z,2.03
2023-03-30T23:30:52.015Z,2.20
2023-03-30T23:33:21.522Z,2.45
2023-03-30T23:35:50.943Z,1.88
2023-03-30T23:38:18.982Z,2.42
2023-03-30T23:40:47.402Z,1.90
2023-03-30T23:43:15.470Z,2.08
2023-03-30T23:45:44.363Z,1.90
2023-03-30T23:48:13.586Z,2.25
2023-03-30T23:50:41.698Z,2.75
2023-03-30T23:53:09.751Z,2.40
2023-03-30T23:55:37.803Z,2.40
2023-03-30T23:58:06.142Z,2.03
